Time;durP1;ratioP1;P1;durP2;ratioP2;P2;SDS_P1;SDS_P2;PMS_P1;PMS_P2;Temp;Humidity;BMP_temperature;BMP_pressure;BME280_temperature;BME280_humidity;BME280_pressure;Samples;Min_cycle;Max_cycle;Signal;HPM_P1;HPM_P2
2022/03/08 00:01:29;;;;;;;20.63;9.82;;;;;;;;;;4927247;29;20146;-71
2022/03/08 00:03:58;;;;;;;27.17;9.98;;;;;;;;;;4930198;29;20283;-71
2022/03/08 00:06:26;;;;;;;25.27;10.73;;;;;;;;;;4930200;29;20155;-71
2022/03/08 00:08:55;;;;;;;20.27;9.32;;;;;;;;;;4931249;29;20461;-71
2022/03/08 00:11:37;;;;;;;23.33;10.63;;;;;;;;;;4930407;29;20135;-71
2022/03/08 00:14:05;;;;;;;22.98;10.88;;;;;;;;;;4929360;29;20106;-71
2022/03/08 00:16:33;;;;;;;28.98;10.77;;;;;;;;;;4929680;29;20047;-71
2022/03/08 00:19:07;;;;;;;26.50;10.15;;;;;;;;;;4922254;29;20067;-71
2022/03/08 00:21:36;;;;;;;21.48;9.80;;;;;;;;;;4930760;29;20047;-71
2022/03/08 00:24:05;;;;;;;30.85;11.73;;;;;;;;;;4932001;29;20075;-71
2022/03/08 00:26:34;;;;;;;25.63;10.60;;;;;;;;;;4928701;29;20056;-71
2022/03/08 00:29:04;;;;;;;27.88;11.55;;;;;;;;;;4929845;29;20468;-71
2022/03/08 00:31:32;;;;;;;20.65;9.73;;;;;;;;;;4930587;29;20084;-71
2022/03/08 00:34:01;;;;;;;31.60;10.00;;;;;;;;;;4931868;29;20115;-71
2022/03/08 00:36:29;;;;;;;21.25;9.57;;;;;;;;;;4928171;29;20132;-71
2022/03/08 00:38:58;;;;;;;23.42;10.48;;;;;;;;;;4930753;29;20071;-72
2022/03/08 00:41:37;;;;;;;22.75;10.45;;;;;;;;;;4929894;29;20135;-71
2022/03/08 00:44:07;;;;;;;19.85;8.93;;;;;;;;;;4931382;29;20078;-71
2022/03/08 00:46:36;;;;;;;25.23;9.48;;;;;;;;;;4931139;29;20047;-71
2022/03/08 00:49:05;;;;;;;19.58;8.77;;;;;;;;;;4933916;29;20055;-71
2022/03/08 00:51:36;;;;;;;23.77;9.63;;;;;;;;;;4932914;29;20071;-71
2022/03/08 00:54:05;;;;;;;23.83;9.68;;;;;;;;;;4930265;29;20122;-71
2022/03/08 00:56:33;;;;;;;21.75;9.20;;;;;;;;;;4930348;29;20075;-71
2022/03/08 00:59:01;;;;;;;23.60;10.15;;;;;;;;;;4930080;29;20095;-71
2022/03/08 01:01:32;;;;;;;20.48;9.88;;;;;;;;;;4930680;29;20043;-71
2022/03/08 01:04:01;;;;;;;22.05;9.85;;;;;;;;;;4927689;29;20066;-71
2022/03/08 01:06:30;;;;;;;28.67;10.98;;;;;;;;;;4930562;29;20142;-71
2022/03/08 01:08:58;;;;;;;24.33;10.45;;;;;;;;;;4929728;29;20467;-71
2022/03/08 01:11:27;;;;;;;22.83;9.45;;;;;;;;;;4929949;29;20412;-71
2022/03/08 01:13:55;;;;;;;23.60;9.13;;;;;;;;;;4929919;29;20098;-71
2022/03/08 01:16:23;;;;;;;25.60;10.15;;;;;;;;;;4931041;29;20142;-71
2022/03/08 01:18:53;;;;;;;24.90;9.25;;;;;;;;;;4930211;29;20898;-71
2022/03/08 01:21:22;;;;;;;21.55;9.48;;;;;;;;;;4928597;29;20103;-71
2022/03/08 01:23:50;;;;;;;30.20;10.07;;;;;;;;;;4928818;29;20491;-71
2022/03/08 01:26:27;;;;;;;21.67;9.30;;;;;;;;;;4929205;29;20075;-71
2022/03/08 01:28:56;;;;;;;19.98;9.38;;;;;;;;;;4929784;29;20135;-71
2022/03/08 01:31:49;;;;;;;21.20;9.35;;;;;;;;;;4929447;29;20130;-71
2022/03/08 01:34:19;;;;;;;22.10;8.85;;;;;;;;;;4929869;29;20843;-71
2022/03/08 01:36:47;;;;;;;21.00;8.93;;;;;;;;;;4929963;29;20071;-71
2022/03/08 01:39:16;;;;;;;21.30;8.23;;;;;;;;;;4930121;29;20118;-71
2022/03/08 01:41:44;;;;;;;20.10;8.52;;;;;;;;;;4932032;29;20480;-70
2022/03/08 01:44:13;;;;;;;17.15;8.20;;;;;;;;;;4929222;29;20048;-71
2022/03/08 01:46:41;;;;;;;20.75;9.48;;;;;;;;;;4931033;29;20504;-70
2022/03/08 01:49:09;;;;;;;22.45;9.13;;;;;;;;;;4933624;29;20056;-71
2022/03/08 01:51:39;;;;;;;21.38;9.05;;;;;;;;;;4931277;29;20047;-71
2022/03/08 01:54:08;;;;;;;24.60;9.82;;;;;;;;;;4930890;29;20469;-71
2022/03/08 01:56:37;;;;;;;23.98;10.30;;;;;;;;;;4932560;29;20232;-71
2022/03/08 01:59:05;;;;;;;21.70;8.45;;;;;;;;;;4933551;29;20508;-71
2022/03/08 02:01:33;;;;;;;17.75;8.80;;;;;;;;;;4930636;29;20047;-71
2022/03/08 02:04:02;;;;;;;20.83;7.75;;;;;;;;;;4931423;29;20437;-71
2022/03/08 02:06:52;;;;;;;18.17;8.38;;;;;;;;;;4932654;29;20048;-71
2022/03/08 02:09:22;;;;;;;19.60;9.00;;;;;;;;;;4930777;29;20134;-71
2022/03/08 02:11:50;;;;;;;17.60;8.95;;;;;;;;;;4933253;29;20131;-70
2022/03/08 02:14:18;;;;;;;20.05;8.25;;;;;;;;;;4931880;29;20138;-70
2022/03/08 02:17:06;;;;;;;19.70;8.00;;;;;;;;;;4931342;29;20146;-71
2022/03/08 02:19:35;;;;;;;19.50;8.18;;;;;;;;;;4932212;29;20461;-71
2022/03/08 02:22:05;;;;;;;23.90;9.40;;;;;;;;;;4930974;29;20087;-70
2022/03/08 02:24:33;;;;;;;20.77;9.02;;;;;;;;;;4930547;29;20130;-70
2022/03/08 02:27:09;;;;;;;20.77;7.65;;;;;;;;;;4931054;29;20163;-70
2022/03/08 02:29:38;;;;;;;20.48;9.40;;;;;;;;;;4930359;29;20044;-71
2022/03/08 02:32:06;;;;;;;16.85;7.63;;;;;;;;;;4932936;29;20131;-70
2022/03/08 02:34:35;;;;;;;21.42;8.05;;;;;;;;;;4927298;29;20052;-71
2022/03/08 02:37:07;;;;;;;22.38;8.30;;;;;;;;;;4934439;29;20131;-70
2022/03/08 02:39:36;;;;;;;19.70;8.68;;;;;;;;;;4931658;29;20047;-71
2022/03/08 02:42:05;;;;;;;24.50;8.88;;;;;;;;;;4930492;29;20051;-70
2022/03/08 02:44:33;;;;;;;18.98;8.80;;;;;;;;;;4931561;29;20146;-71
2022/03/08 02:47:03;;;;;;;19.65;8.57;;;;;;;;;;4931709;29;20066;-71
2022/03/08 02:49:32;;;;;;;21.65;9.48;;;;;;;;;;4931112;29;20168;-71
2022/03/08 02:52:00;;;;;;;22.98;8.50;;;;;;;;;;4927097;29;20101;-71
2022/03/08 02:54:30;;;;;;;25.02;9.30;;;;;;;;;;4926297;29;20126;-70
2022/03/08 02:56:58;;;;;;;20.67;10.20;;;;;;;;;;4930991;29;20111;-71
2022/03/08 02:59:27;;;;;;;23.10;9.25;;;;;;;;;;4928889;29;20043;-70
2022/03/08 03:02:17;;;;;;;23.00;8.77;;;;;;;;;;4932199;29;20083;-71
2022/03/08 03:04:46;;;;;;;22.77;9.35;;;;;;;;;;4927230;29;20056;-71
2022/03/08 03:07:15;;;;;;;18.73;8.35;;;;;;;;;;4932137;29;20079;-71
2022/03/08 03:09:45;;;;;;;19.40;8.32;;;;;;;;;;4921989;29;20052;-71
2022/03/08 03:12:13;;;;;;;19.25;8.40;;;;;;;;;;4932397;29;20062;-70
2022/03/08 03:14:42;;;;;;;25.08;9.23;;;;;;;;;;4931959;29;20090;-70
2022/03/08 03:17:17;;;;;;;22.27;8.05;;;;;;;;;;4932584;29;20082;-71
2022/03/08 03:19:46;;;;;;;27.45;9.43;;;;;;;;;;4923769;29;20048;-70
2022/03/08 03:22:14;;;;;;;22.73;8.60;;;;;;;;;;4930838;29;20131;-70
2022/03/08 03:24:43;;;;;;;24.27;9.63;;;;;;;;;;4931142;29;20139;-71
2022/03/08 03:27:12;;;;;;;18.67;8.13;;;;;;;;;;4932494;29;20079;-71
2022/03/08 03:29:40;;;;;;;20.60;8.02;;;;;;;;;;4930377;29;20545;-71
2022/03/08 03:32:09;;;;;;;18.73;8.05;;;;;;;;;;4932483;29;20143;-71
2022/03/08 03:34:37;;;;;;;21.13;9.20;;;;;;;;;;4931327;29;20105;-71
2022/03/08 03:37:06;;;;;;;22.50;8.38;;;;;;;;;;4928454;29;20098;-70
2022/03/08 03:39:34;;;;;;;16.65;7.78;;;;;;;;;;4932128;29;20142;-71
2022/03/08 03:42:02;;;;;;;21.20;8.32;;;;;;;;;;4926773;29;20497;-70
2022/03/08 03:44:32;;;;;;;15.77;7.40;;;;;;;;;;4928802;29;20584;-70
2022/03/08 03:47:00;;;;;;;18.38;8.20;;;;;;;;;;4930214;29;20363;-70
2022/03/08 03:49:29;;;;;;;22.02;8.75;;;;;;;;;;4931178;29;20136;-70
2022/03/08 03:51:58;;;;;;;16.77;8.57;;;;;;;;;;4925086;29;20452;-71
2022/03/08 03:54:26;;;;;;;21.67;8.48;;;;;;;;;;4923562;29;20130;-71
2022/03/08 03:57:01;;;;;;;19.27;8.02;;;;;;;;;;4927060;29;20055;-70
2022/03/08 03:59:29;;;;;;;19.65;9.07;;;;;;;;;;4926782;29;20567;-70
2022/03/08 04:02:31;;;;;;;17.98;8.55;;;;;;;;;;4932347;29;20460;-70
2022/03/08 04:05:01;;;;;;;20.05;7.95;;;;;;;;;;4925328;29;20055;-70
2022/03/08 04:07:30;;;;;;;24.48;7.97;;;;;;;;;;4931152;29;20051;-71
2022/03/08 04:09:58;;;;;;;24.13;8.65;;;;;;;;;;4929738;29;20070;-71
2022/03/08 04:12:27;;;;;;;19.35;8.77;;;;;;;;;;4931676;29;20075;-70
2022/03/08 04:14:55;;;;;;;17.63;8.02;;;;;;;;;;4930672;29;20467;-70
2022/03/08 04:17:35;;;;;;;19.02;8.43;;;;;;;;;;4930104;29;20134;-71
2022/03/08 04:20:05;;;;;;;20.38;9.50;;;;;;;;;;4928587;29;20105;-71
2022/03/08 04:22:34;;;;;;;20.98;8.50;;;;;;;;;;4926557;29;20142;-70
2022/03/08 04:25:02;;;;;;;15.55;7.40;;;;;;;;;;4930571;29;20083;-70
2022/03/08 04:27:31;;;;;;;25.60;9.45;;;;;;;;;;4930416;29;20079;-71
2022/03/08 04:29:59;;;;;;;18.88;9.30;;;;;;;;;;4929726;29;20087;-70
2022/03/08 04:32:27;;;;;;;22.48;8.48;;;;;;;;;;4930489;29;20138;-70
2022/03/08 04:34:56;;;;;;;25.50;9.98;;;;;;;;;;4932082;29;20051;-71
2022/03/08 04:40:48;;;;;;;20.08;8.70;;;;;;;;;;4928652;29;20062;-70
2022/03/08 04:43:17;;;;;;;18.92;7.93;;;;;;;;;;4933357;29;20135;-71
2022/03/08 04:45:45;;;;;;;22.33;9.65;;;;;;;;;;4931498;29;20097;-71
2022/03/08 04:48:13;;;;;;;21.27;9.07;;;;;;;;;;4934605;29;20063;-70
2022/03/08 04:50:42;;;;;;;24.85;9.23;;;;;;;;;;4925502;29;20067;-71
2022/03/08 04:53:10;;;;;;;23.48;8.75;;;;;;;;;;4931248;29;20044;-70
2022/03/08 04:55:39;;;;;;;17.05;8.38;;;;;;;;;;4930946;29;20146;-70
2022/03/08 04:58:08;;;;;;;20.08;8.93;;;;;;;;;;4931112;29;20055;-70
2022/03/08 05:00:37;;;;;;;19.50;9.45;;;;;;;;;;4929293;29;20058;-70
2022/03/08 05:03:06;;;;;;;17.25;7.75;;;;;;;;;;4928360;29;20059;-70
2022/03/08 05:05:34;;;;;;;22.33;9.20;;;;;;;;;;4929191;29;20147;-70
2022/03/08 05:08:03;;;;;;;20.40;9.05;;;;;;;;;;4929783;29;20146;-71
2022/03/08 05:10:31;;;;;;;19.10;7.78;;;;;;;;;;4929520;29;20066;-70
2022/03/08 05:13:00;;;;;;;20.25;8.20;;;;;;;;;;4934027;29;20511;-70
2022/03/08 05:15:29;;;;;;;19.45;8.80;;;;;;;;;;4933220;29;20091;-70
2022/03/08 05:17:58;;;;;;;19.02;8.20;;;;;;;;;;4927696;29;20058;-70
2022/03/08 05:20:26;;;;;;;24.73;9.32;;;;;;;;;;4932474;29;20134;-70
2022/03/08 05:22:56;;;;;;;21.13;8.20;;;;;;;;;;4931359;29;20091;-70
2022/03/08 05:25:28;;;;;;;21.67;7.75;;;;;;;;;;4933022;29;20051;-71
2022/03/08 05:27:56;;;;;;;16.70;7.28;;;;;;;;;;4933894;29;20091;-68
2022/03/08 05:30:24;;;;;;;17.23;8.38;;;;;;;;;;4935373;29;20504;-69
2022/03/08 05:32:54;;;;;;;20.65;8.63;;;;;;;;;;4934632;29;20059;-71
2022/03/08 05:35:23;;;;;;;22.40;8.95;;;;;;;;;;4929589;29;20055;-69
2022/03/08 05:37:51;;;;;;;18.58;6.72;;;;;;;;;;4930623;29;20310;-69
2022/03/08 05:40:20;;;;;;;22.67;9.13;;;;;;;;;;4932176;29;20075;-69
2022/03/08 05:42:48;;;;;;;21.80;8.80;;;;;;;;;;4932499;29;20052;-69
2022/03/08 05:45:17;;;;;;;23.48;9.68;;;;;;;;;;4934333;29;20051;-70
2022/03/08 05:47:45;;;;;;;17.98;8.98;;;;;;;;;;4933511;29;20473;-70
2022/03/08 05:50:15;;;;;;;23.55;9.82;;;;;;;;;;4927829;29;20056;-70
2022/03/08 05:52:44;;;;;;;24.38;9.73;;;;;;;;;;4932053;29;20138;-70
2022/03/08 05:55:12;;;;;;;19.13;7.85;;;;;;;;;;4933473;29;20083;-70
2022/03/08 05:57:41;;;;;;;21.02;8.80;;;;;;;;;;4933844;29;20079;-70
2022/03/08 06:00:10;;;;;;;20.92;8.15;;;;;;;;;;4930965;29;20087;-70
2022/03/08 06:02:39;;;;;;;23.75;9.07;;;;;;;;;;4932014;29;20044;-70
2022/03/08 06:05:08;;;;;;;17.23;7.65;;;;;;;;;;4931232;29;20401;-70
2022/03/08 06:07:38;;;;;;;23.23;9.40;;;;;;;;;;4929382;29;20058;-70
2022/03/08 06:10:08;;;;;;;23.40;8.80;;;;;;;;;;4931377;29;20127;-70
2022/03/08 06:12:37;;;;;;;19.15;9.00;;;;;;;;;;4930946;29;20484;-70
2022/03/08 06:15:06;;;;;;;23.23;9.48;;;;;;;;;;4929834;29;20079;-71
2022/03/08 06:17:34;;;;;;;20.20;8.48;;;;;;;;;;4933317;29;20047;-70
2022/03/08 06:20:03;;;;;;;18.70;8.55;;;;;;;;;;4934036;29;20089;-71
2022/03/08 06:22:31;;;;;;;24.73;9.82;;;;;;;;;;4931652;29;20087;-70
2022/03/08 06:25:01;;;;;;;18.33;8.30;;;;;;;;;;4932159;29;20094;-70
2022/03/08 06:27:29;;;;;;;19.73;8.50;;;;;;;;;;4932854;29;20086;-70
2022/03/08 06:29:57;;;;;;;23.00;7.68;;;;;;;;;;4930280;29;20457;-70
2022/03/08 06:32:26;;;;;;;20.90;8.20;;;;;;;;;;4932194;29;20131;-70
2022/03/08 06:34:54;;;;;;;21.52;9.20;;;;;;;;;;4933274;29;20408;-70
2022/03/08 06:37:23;;;;;;;19.52;8.30;;;;;;;;;;4932608;29;20079;-70
2022/03/08 06:39:51;;;;;;;23.00;9.10;;;;;;;;;;4932548;29;20461;-70
2022/03/08 06:42:21;;;;;;;21.80;8.98;;;;;;;;;;4935495;29;20481;-70
2022/03/08 06:44:49;;;;;;;25.10;9.07;;;;;;;;;;4933464;29;20134;-70
2022/03/08 06:47:18;;;;;;;19.17;8.60;;;;;;;;;;4931332;29;20481;-71
2022/03/08 06:49:47;;;;;;;21.00;9.07;;;;;;;;;;4926235;29;20635;-70
2022/03/08 06:52:15;;;;;;;23.55;9.13;;;;;;;;;;4933018;29;20114;-71
2022/03/08 06:54:44;;;;;;;24.90;9.38;;;;;;;;;;4931896;29;20056;-70
2022/03/08 06:57:14;;;;;;;21.10;8.07;;;;;;;;;;4930077;29;20087;-70
2022/03/08 06:59:44;;;;;;;23.85;9.73;;;;;;;;;;4930626;29;20091;-70
2022/03/08 07:02:13;;;;;;;18.45;7.30;;;;;;;;;;4931607;29;20047;-70
2022/03/08 07:04:42;;;;;;;23.45;8.05;;;;;;;;;;4931328;29;20147;-71
2022/03/08 07:07:10;;;;;;;29.13;8.38;;;;;;;;;;4926400;29;20051;-70
2022/03/08 07:09:39;;;;;;;28.13;8.60;;;;;;;;;;4931248;29;20047;-71
2022/03/08 07:12:08;;;;;;;26.40;7.68;;;;;;;;;;4930622;29;20054;-70
2022/03/08 07:14:37;;;;;;;31.08;9.13;;;;;;;;;;4933653;29;20051;-71
2022/03/08 07:17:07;;;;;;;17.60;7.90;;;;;;;;;;4933302;29;20138;-70
2022/03/08 07:19:36;;;;;;;17.83;7.38;;;;;;;;;;4931342;29;20055;-70
2022/03/08 07:22:04;;;;;;;24.02;9.25;;;;;;;;;;4932342;29;20389;-71
2022/03/08 07:24:33;;;;;;;18.67;8.50;;;;;;;;;;4930558;29;20060;-70
2022/03/08 07:27:01;;;;;;;26.63;6.97;;;;;;;;;;4932965;29;20527;-71
2022/03/08 07:29:29;;;;;;;23.98;8.45;;;;;;;;;;4931371;29;20100;-71
2022/03/08 07:31:58;;;;;;;21.05;7.32;;;;;;;;;;4932127;29;20051;-70
2022/03/08 07:34:28;;;;;;;17.67;8.18;;;;;;;;;;4929431;29;20051;-71
2022/03/08 07:36:57;;;;;;;22.92;7.53;;;;;;;;;;4930479;29;20063;-70
2022/03/08 07:39:25;;;;;;;26.30;7.13;;;;;;;;;;4930318;29;20055;-71
2022/03/08 07:41:54;;;;;;;17.85;7.03;;;;;;;;;;4929921;29;20040;-71
2022/03/08 07:44:23;;;;;;;19.55;7.72;;;;;;;;;;4932414;29;20047;-71
2022/03/08 07:46:53;;;;;;;19.42;7.95;;;;;;;;;;4931381;29;20052;-71
2022/03/08 07:49:21;;;;;;;14.48;7.45;;;;;;;;;;4931615;29;20055;-71
2022/03/08 07:51:51;;;;;;;21.25;6.82;;;;;;;;;;4929392;29;20095;-71
2022/03/08 07:54:20;;;;;;;17.17;7.10;;;;;;;;;;4928074;29;20587;-70
2022/03/08 07:56:48;;;;;;;13.98;7.10;;;;;;;;;;4931940;29;20563;-71
2022/03/08 07:59:17;;;;;;;14.77;7.53;;;;;;;;;;4931618;29;20075;-71
2022/03/08 08:01:45;;;;;;;23.13;7.10;;;;;;;;;;4934342;29;20086;-71
2022/03/08 08:04:14;;;;;;;19.30;7.22;;;;;;;;;;4931544;29;20066;-70
2022/03/08 08:06:43;;;;;;;16.90;7.43;;;;;;;;;;4931024;29;20107;-69
2022/03/08 08:09:13;;;;;;;13.18;6.32;;;;;;;;;;4930605;29;20043;-70
2022/03/08 08:11:42;;;;;;;12.60;6.70;;;;;;;;;;4932924;29;20052;-70
2022/03/08 08:14:10;;;;;;;20.42;6.65;;;;;;;;;;4929000;29;20140;-69
2022/03/08 08:16:39;;;;;;;19.80;7.32;;;;;;;;;;4921715;29;20388;-70
2022/03/08 08:19:07;;;;;;;14.00;6.97;;;;;;;;;;4930608;29;20424;-70
2022/03/08 08:21:36;;;;;;;14.52;6.63;;;;;;;;;;4930620;29;20115;-70
2022/03/08 08:24:05;;;;;;;14.77;6.22;;;;;;;;;;4930062;29;20087;-69
2022/03/08 08:26:35;;;;;;;14.10;6.07;;;;;;;;;;4927281;29;20047;-70
2022/03/08 08:29:04;;;;;;;12.43;6.22;;;;;;;;;;4931120;29;20059;-71
2022/03/08 08:31:33;;;;;;;17.00;6.85;;;;;;;;;;4926827;29;20048;-70
2022/03/08 08:34:03;;;;;;;18.75;6.65;;;;;;;;;;4938153;29;20039;-70
2022/03/08 08:36:32;;;;;;;15.32;5.95;;;;;;;;;;4928956;29;20047;-71
2022/03/08 08:39:01;;;;;;;14.23;6.45;;;;;;;;;;4934686;29;20486;-71
2022/03/08 08:41:29;;;;;;;15.50;7.13;;;;;;;;;;4933244;29;20051;-71
2022/03/08 08:43:59;;;;;;;16.58;6.85;;;;;;;;;;4935089;29;20047;-71
2022/03/08 08:46:28;;;;;;;14.25;6.18;;;;;;;;;;4935323;29;20051;-70
2022/03/08 08:48:57;;;;;;;13.63;6.45;;;;;;;;;;4936710;29;20153;-70
2022/03/08 08:51:26;;;;;;;13.02;6.32;;;;;;;;;;4938940;29;20457;-71
2022/03/08 08:53:56;;;;;;;12.77;6.35;;;;;;;;;;4939758;29;20070;-71
2022/03/08 08:56:25;;;;;;;9.90;5.15;;;;;;;;;;4937421;29;20142;-71
2022/03/08 08:58:54;;;;;;;8.57;4.70;;;;;;;;;;4934314;29;20055;-70
2022/03/08 09:01:24;;;;;;;8.95;4.53;;;;;;;;;;4937143;29;20285;-70
2022/03/08 09:03:54;;;;;;;13.05;5.53;;;;;;;;;;4934945;29;20047;-71
2022/03/08 09:06:23;;;;;;;9.43;4.65;;;;;;;;;;4934477;29;20472;-70
2022/03/08 09:08:52;;;;;;;12.10;4.22;;;;;;;;;;4934549;29;20043;-70
2022/03/08 09:11:21;;;;;;;13.50;4.88;;;;;;;;;;4933950;29;20544;-70
2022/03/08 09:13:51;;;;;;;8.45;4.65;;;;;;;;;;4934494;29;20544;-70
2022/03/08 09:16:20;;;;;;;10.70;4.53;;;;;;;;;;4931890;29;20047;-70
2022/03/08 09:18:50;;;;;;;6.60;3.47;;;;;;;;;;4930704;29;20420;-71
2022/03/08 09:21:20;;;;;;;9.05;3.88;;;;;;;;;;4934511;29;20087;-71
2022/03/08 09:23:49;;;;;;;7.90;3.65;;;;;;;;;;4933437;29;20492;-70
2022/03/08 09:26:18;;;;;;;13.00;3.95;;;;;;;;;;4933968;29;20066;-70
2022/03/08 09:28:47;;;;;;;5.65;3.03;;;;;;;;;;4928945;28;20663;-70
2022/03/08 09:31:16;;;;;;;8.75;3.47;;;;;;;;;;4916297;29;20044;-70
2022/03/08 09:33:46;;;;;;;8.00;3.38;;;;;;;;;;4916106;29;20076;-70
2022/03/08 09:36:16;;;;;;;6.20;3.10;;;;;;;;;;4910553;29;20044;-70
2022/03/08 09:38:45;;;;;;;6.47;3.42;;;;;;;;;;4913852;29;20099;-71
2022/03/08 09:41:15;;;;;;;5.85;3.30;;;;;;;;;;4915584;29;20512;-70
2022/03/08 09:43:45;;;;;;;8.63;4.18;;;;;;;;;;4915882;29;20044;-71
2022/03/08 09:46:15;;;;;;;6.97;3.55;;;;;;;;;;4915293;29;20056;-72
2022/03/08 09:48:44;;;;;;;6.13;3.25;;;;;;;;;;4914124;29;20529;-72
2022/03/08 09:51:15;;;;;;;7.05;3.75;;;;;;;;;;4911252;29;20056;-72
2022/03/08 09:53:46;;;;;;;6.25;2.97;;;;;;;;;;4914242;29;20040;-71
2022/03/08 09:56:18;;;;;;;13.52;3.97;;;;;;;;;;4913356;29;20455;-72
2022/03/08 09:58:47;;;;;;;5.78;3.15;;;;;;;;;;4915485;29;20060;-71
2022/03/08 10:01:17;;;;;;;14.38;3.58;;;;;;;;;;4933329;29;20059;-70
2022/03/08 10:03:46;;;;;;;8.85;3.60;;;;;;;;;;4933954;29;20066;-69
2022/03/08 10:06:16;;;;;;;7.43;3.50;;;;;;;;;;4931065;29;20044;-70
2022/03/08 10:08:47;;;;;;;5.45;2.83;;;;;;;;;;4931790;29;20055;-71
2022/03/08 10:11:18;;;;;;;7.47;3.72;;;;;;;;;;4933557;29;20052;-70
2022/03/08 10:13:50;;;;;;;5.78;3.08;;;;;;;;;;4931613;29;20054;-70
2022/03/08 10:16:24;;;;;;;7.15;3.33;;;;;;;;;;4932873;29;20117;-70
2022/03/08 10:18:54;;;;;;;7.50;4.00;;;;;;;;;;4931811;29;20471;-70
2022/03/08 10:21:27;;;;;;;8.52;3.83;;;;;;;;;;4931471;29;20059;-69
2022/03/08 10:23:59;;;;;;;6.53;2.97;;;;;;;;;;4934949;29;20401;-69
2022/03/08 10:26:28;;;;;;;6.03;2.60;;;;;;;;;;4932500;29;20052;-70
2022/03/08 10:28:58;;;;;;;5.07;3.13;;;;;;;;;;4932800;29;20055;-70
2022/03/08 10:31:27;;;;;;;4.28;2.90;;;;;;;;;;4928054;29;20415;-70
2022/03/08 10:34:04;;;;;;;6.07;3.10;;;;;;;;;;4930640;29;20048;-70
2022/03/08 10:36:35;;;;;;;6.60;2.85;;;;;;;;;;4931613;29;20056;-70
2022/03/08 10:39:10;;;;;;;6.03;2.28;;;;;;;;;;4928728;29;20346;-70
2022/03/08 10:41:49;;;;;;;6.80;2.97;;;;;;;;;;4929450;29;20052;-70
2022/03/08 10:44:19;;;;;;;5.47;2.67;;;;;;;;;;4933098;29;20094;-70
2022/03/08 10:46:59;;;;;;;5.00;3.13;;;;;;;;;;4931511;29;20051;-70
2022/03/08 10:49:29;;;;;;;10.25;3.25;;;;;;;;;;4929031;29;20060;-70
2022/03/08 10:52:02;;;;;;;5.13;3.13;;;;;;;;;;4934328;29;20086;-70
2022/03/08 10:54:32;;;;;;;8.95;3.38;;;;;;;;;;4931917;29;20102;-70
2022/03/08 10:57:02;;;;;;;5.05;2.75;;;;;;;;;;4933843;29;20106;-70
2022/03/08 10:59:30;;;;;;;7.28;3.15;;;;;;;;;;4931595;29;20060;-69
2022/03/08 11:01:59;;;;;;;6.70;3.05;;;;;;;;;;4932904;29;20533;-69
2022/03/08 11:04:28;;;;;;;4.90;3.03;;;;;;;;;;4930459;29;20060;-70
2022/03/08 11:06:57;;;;;;;8.27;3.30;;;;;;;;;;4932488;29;20051;-71
2022/03/08 11:09:26;;;;;;;8.20;2.95;;;;;;;;;;4929890;29;20497;-70
2022/03/08 11:11:55;;;;;;;5.18;3.10;;;;;;;;;;4933183;29;20048;-70
2022/03/08 11:14:24;;;;;;;5.47;2.83;;;;;;;;;;4928711;29;20044;-71
2022/03/08 11:16:53;;;;;;;5.00;2.78;;;;;;;;;;4931234;29;20043;-70
2022/03/08 11:19:26;;;;;;;4.57;2.42;;;;;;;;;;4931693;29;20118;-70
2022/03/08 11:21:57;;;;;;;3.97;2.50;;;;;;;;;;4929631;29;20048;-70
2022/03/08 11:24:26;;;;;;;3.95;2.35;;;;;;;;;;4933989;29;20048;-70
2022/03/08 11:26:56;;;;;;;6.85;2.90;;;;;;;;;;4932446;29;20055;-70
2022/03/08 11:29:26;;;;;;;5.72;2.85;;;;;;;;;;4932381;29;20055;-70
2022/03/08 11:31:56;;;;;;;7.30;3.28;;;;;;;;;;4929707;29;20047;-71
2022/03/08 11:34:28;;;;;;;6.78;3.53;;;;;;;;;;4931558;29;20047;-71
2022/03/08 11:36:59;;;;;;;7.65;3.97;;;;;;;;;;4932648;29;20100;-71
2022/03/08 11:39:29;;;;;;;6.72;3.67;;;;;;;;;;4927927;29;20143;-70
2022/03/08 11:42:00;;;;;;;7.28;4.07;;;;;;;;;;4932407;29;20055;-71
2022/03/08 11:44:30;;;;;;;5.40;3.22;;;;;;;;;;4924935;29;20138;-70
2022/03/08 11:46:59;;;;;;;5.90;3.55;;;;;;;;;;4930795;29;20067;-70
2022/03/08 11:49:45;;;;;;;6.28;3.10;;;;;;;;;;4926530;29;20492;-70
2022/03/08 11:52:13;;;;;;;;;;;;;;;;;;4929807;29;20056;-69
2022/03/08 11:54:41;;;;;;;6.30;3.50;;;;;;;;;;4928448;29;20453;-70
2022/03/08 11:57:11;;;;;;;8.90;4.07;;;;;;;;;;4931275;29;20083;-70
2022/03/08 11:59:39;;;;;;;6.75;3.38;;;;;;;;;;4928062;29;20528;-70
2022/03/08 12:02:18;;;;;;;7.82;3.53;;;;;;;;;;4928876;29;20111;-70
2022/03/08 12:04:51;;;;;;;6.60;3.63;;;;;;;;;;4930962;29;20441;-70
2022/03/08 12:07:27;;;;;;;8.65;4.13;;;;;;;;;;4930663;29;20055;-70
2022/03/08 12:10:13;;;;;;;5.57;3.38;;;;;;;;;;4928031;29;20043;-70
2022/03/08 12:12:44;;;;;;;9.30;4.28;;;;;;;;;;4913588;29;20151;-70
2022/03/08 12:15:12;;;;;;;5.53;3.10;;;;;;;;;;4931008;29;20051;-70
2022/03/08 12:18:02;;;;;;;9.25;4.05;;;;;;;;;;4927050;29;20058;-70
2022/03/08 12:20:32;;;;;;;5.93;3.40;;;;;;;;;;4929176;29;20087;-70
2022/03/08 12:23:09;;;;;;;7.65;3.70;;;;;;;;;;4930818;29;20098;-70
2022/03/08 12:25:38;;;;;;;7.25;3.90;;;;;;;;;;4927443;29;20083;-70
2022/03/08 12:28:07;;;;;;;6.10;2.85;;;;;;;;;;4929487;29;20126;-70
2022/03/08 12:30:42;;;;;;;8.05;4.18;;;;;;;;;;4924720;29;20063;-70
2022/03/08 12:33:11;;;;;;;7.88;4.53;;;;;;;;;;4930105;29;20075;-69
2022/03/08 12:35:52;;;;;;;6.65;3.38;;;;;;;;;;4929207;29;20047;-70
2022/03/08 12:38:20;;;;;;;9.63;4.03;;;;;;;;;;4928281;29;20138;-70
2022/03/08 12:40:51;;;;;;;9.05;4.13;;;;;;;;;;4926380;29;20047;-70
2022/03/08 12:43:19;;;;;;;10.50;4.07;;;;;;;;;;4928921;29;20055;-70
2022/03/08 12:45:48;;;;;;;9.15;4.50;;;;;;;;;;4929403;29;20106;-70
2022/03/08 12:48:18;;;;;;;9.27;4.00;;;;;;;;;;4926494;29;20043;-70
2022/03/08 12:50:49;;;;;;;6.25;3.58;;;;;;;;;;4930457;29;20055;-70
2022/03/08 12:53:18;;;;;;;8.63;3.80;;;;;;;;;;4928421;29;20571;-70
2022/03/08 12:55:48;;;;;;;6.78;3.92;;;;;;;;;;4931297;29;20071;-70
2022/03/08 12:58:17;;;;;;;6.75;3.65;;;;;;;;;;4927312;29;20074;-70
2022/03/08 13:00:46;;;;;;;7.22;4.05;;;;;;;;;;4929323;29;20146;-71
2022/03/08 13:03:16;;;;;;;8.75;4.05;;;;;;;;;;4927751;29;20047;-71
2022/03/08 13:05:45;;;;;;;12.00;4.50;;;;;;;;;;4938201;29;20518;-70
2022/03/08 13:08:17;;;;;;;7.97;4.50;;;;;;;;;;4929579;29;20047;-71
2022/03/08 13:10:46;;;;;;;10.55;4.75;;;;;;;;;;4930060;29;20560;-70
2022/03/08 13:13:38;;;;;;;7.38;4.38;;;;;;;;;;4932000;29;20496;-71
2022/03/08 13:16:07;;;;;;;7.50;4.30;;;;;;;;;;4938321;29;20551;-70
2022/03/08 13:18:36;;;;;;;8.82;4.20;;;;;;;;;;4932585;29;20058;-70
2022/03/08 13:21:11;;;;;;;10.05;4.25;;;;;;;;;;4927431;29;20052;-70
2022/03/08 13:23:44;;;;;;;8.00;4.22;;;;;;;;;;4929055;29;20058;-69
2022/03/08 13:26:49;;;;;;;7.63;4.03;;;;;;;;;;4930626;29;20052;-70
2022/03/08 13:29:04;;;;;;;8.13;3.90;;;;;;;;;;4934354;28;20047;-70
2022/03/08 13:31:33;;;;;;;8.38;4.60;;;;;;;;;;4927890;29;20835;-70
2022/03/08 13:34:02;;;;;;;8.23;4.13;;;;;;;;;;4933718;29;20056;-70
2022/03/08 13:36:32;;;;;;;8.60;3.85;;;;;;;;;;4932884;29;20539;-70
2022/03/08 13:39:02;;;;;;;7.75;4.03;;;;;;;;;;4933748;29;20480;-70
2022/03/08 13:41:31;;;;;;;9.10;4.10;;;;;;;;;;4932411;29;20051;-71
2022/03/08 13:44:01;;;;;;;11.52;4.03;;;;;;;;;;4934076;29;20047;-71
2022/03/08 13:46:31;;;;;;;9.05;4.60;;;;;;;;;;4931221;29;20086;-71
2022/03/08 13:49:01;;;;;;;9.32;4.35;;;;;;;;;;4931742;29;20449;-71
2022/03/08 13:51:31;;;;;;;12.88;5.10;;;;;;;;;;4931247;29;20052;-71
2022/03/08 13:54:00;;;;;;;5.90;3.67;;;;;;;;;;4933104;29;20050;-71
2022/03/08 13:56:42;;;;;;;7.32;3.50;;;;;;;;;;4936238;29;20055;-69
2022/03/08 13:59:10;;;;;;;7.55;3.60;;;;;;;;;;4936556;29;20052;-70
2022/03/08 14:01:39;;;;;;;6.75;3.67;;;;;;;;;;4938603;29;20052;-70
2022/03/08 14:04:08;;;;;;;6.25;3.10;;;;;;;;;;4933042;29;20124;-70
2022/03/08 14:06:38;;;;;;;6.82;2.85;;;;;;;;;;4932010;29;20047;-70
2022/03/08 14:09:13;;;;;;;7.63;3.00;;;;;;;;;;4931243;29;20106;-70
2022/03/08 14:11:54;;;;;;;6.45;3.63;;;;;;;;;;4931701;29;20374;-70
2022/03/08 14:14:24;;;;;;;5.03;2.80;;;;;;;;;;4928027;29;20131;-69
2022/03/08 14:16:54;;;;;;;5.72;3.30;;;;;;;;;;4929474;29;20055;-70
2022/03/08 14:19:39;;;;;;;5.43;3.08;;;;;;;;;;4925350;29;20050;-70
2022/03/08 14:22:08;;;;;;;3.88;2.70;;;;;;;;;;4927833;29;20551;-70
2022/03/08 14:24:37;;;;;;;5.97;3.20;;;;;;;;;;4929177;29;20515;-70
2022/03/08 14:27:08;;;;;;;5.47;3.08;;;;;;;;;;4929544;29;20079;-70
2022/03/08 14:29:37;;;;;;;6.50;3.25;;;;;;;;;;4924654;29;20460;-70
2022/03/08 14:32:07;;;;;;;8.18;3.72;;;;;;;;;;4931563;29;20063;-70
2022/03/08 14:34:36;;;;;;;5.20;3.10;;;;;;;;;;4926677;29;20043;-69
2022/03/08 14:37:05;;;;;;;5.07;2.53;;;;;;;;;;4926839;29;20055;-70
2022/03/08 14:39:44;;;;;;;7.38;3.05;;;;;;;;;;4927130;29;20146;-70
2022/03/08 14:42:16;;;;;;;5.70;3.03;;;;;;;;;;4927495;29;20119;-69
2022/03/08 14:44:45;;;;;;;6.03;2.90;;;;;;;;;;4928089;29;20150;-70
2022/03/08 14:47:15;;;;;;;7.53;3.60;;;;;;;;;;4926445;29;20095;-70
2022/03/08 14:49:45;;;;;;;6.00;3.28;;;;;;;;;;4927602;29;20048;-69
2022/03/08 14:52:21;;;;;;;6.50;2.97;;;;;;;;;;4936101;29;20139;-69
2022/03/08 14:54:50;;;;;;;6.82;3.20;;;;;;;;;;4930661;29;20079;-70